Time;durP1;ratioP1;P1;durP2;ratioP2;P2;SDS_P1;SDS_P2;PMS_P1;PMS_P2;Temp;Humidity;BMP_temperature;BMP_pressure;BME280_temperature;BME280_humidity;BME280_pressure;Samples;Min_cycle;Max_cycle;Signal;HPM_P1;HPM_P2
2022/07/14 07:58:58;;;;;;;12.20;4.53;;;;;;;19.72;63.10;101877.81;5280709;27;20386;-63
2022/07/14 08:01:30;;;;;;;64.78;10.23;;;;;;;19.66;62.70;101873.44;5277712;28;20043;-64
2022/07/14 08:04:01;;;;;;;11.25;4.47;;;;;;;19.85;61.42;101874.03;5279133;28;20392;-65
2022/07/14 08:06:32;;;;;;;15.88;4.88;;;;;;;19.99;62.42;101873.88;5259624;28;20030;-64
2022/07/14 08:09:03;;;;;;;9.93;5.47;;;;;;;20.05;60.43;101869.75;5263130;28;20079;-65
2022/07/14 08:11:35;;;;;;;12.32;5.97;;;;;;;19.94;60.19;101859.97;5274052;28;20441;-65
2022/07/14 08:14:47;;;;;;;12.85;5.05;;;;;;;20.08;60.91;101859.81;5264743;28;20056;-67
2022/07/14 08:16:59;;;;;;;12.18;4.78;;;;;;;20.07;59.69;101858.16;5274705;28;20024;-65
2022/07/14 08:19:32;;;;;;;8.27;3.60;;;;;;;20.29;60.04;101854.38;5278269;28;20546;-71
2022/07/14 08:22:03;;;;;;;11.05;3.72;;;;;;;20.15;58.29;101858.19;5274097;28;20021;-69
2022/07/14 08:24:35;;;;;;;12.23;3.95;;;;;;;20.19;57.00;101850.69;5276386;28;20036;-71
2022/07/14 08:27:06;;;;;;;9.43;3.67;;;;;;;20.30;57.37;101847.56;5279518;28;20037;-73
2022/07/14 08:29:38;;;;;;;9.38;5.78;;;;;;;20.44;57.63;101853.84;5276457;28;20078;-72
2022/07/14 08:32:09;;;;;;;10.88;4.22;;;;;;;20.46;57.18;101847.91;5278322;28;20473;-73
2022/07/14 08:34:40;;;;;;;9.00;3.70;;;;;;;20.54;55.51;101861.16;5265780;28;20472;-71
2022/07/14 08:37:12;;;;;;;10.45;3.42;;;;;;;20.57;55.17;101847.25;5269428;28;20107;-71
2022/07/14 08:39:43;;;;;;;8.52;3.40;;;;;;;20.54;56.09;101849.88;5259391;28;20027;-72
2022/07/14 08:42:14;;;;;;;6.90;3.22;;;;;;;20.63;56.08;101847.88;5265320;28;20021;-72
2022/07/14 08:44:46;;;;;;;10.23;3.70;;;;;;;20.60;54.36;101854.19;5278713;28;20108;-72
2022/07/14 08:47:18;;;;;;;8.10;3.72;;;;;;;20.66;55.90;101855.69;5278811;28;20102;-73
2022/07/14 08:49:49;;;;;;;7.25;3.38;;;;;;;20.62;55.23;101854.69;5277389;28;20022;-74
2022/07/14 08:52:21;;;;;;;7.97;3.67;;;;;;;20.59;55.31;101858.19;5278708;28;20037;-74
2022/07/14 08:54:52;;;;;;;14.02;5.32;;;;;;;20.29;56.02;101854.38;5265846;28;20068;-71
2022/07/14 08:57:24;;;;;;;14.40;5.00;;;;;;;20.49;55.77;101847.22;5261045;28;20049;-74
2022/07/14 08:59:55;;;;;;;7.82;3.75;;;;;;;20.52;55.53;101846.56;5262670;28;20391;-73
2022/07/14 09:02:26;;;;;;;6.63;3.20;;;;;;;20.71;56.38;101844.25;5275421;28;20032;-74
2022/07/14 09:04:58;;;;;;;11.77;3.60;;;;;;;20.89;56.36;101847.00;5276337;28;20452;-74
2022/07/14 09:07:37;;;;;;;9.18;4.38;;;;;;;20.80;53.95;101849.84;5275341;28;20027;-74
2022/07/14 09:10:13;;;;;;;6.30;3.22;;;;;;;20.65;53.43;101844.75;5257719;28;20017;-73
2022/07/14 09:12:45;;;;;;;5.97;3.70;;;;;;;20.71;53.85;101849.88;5264095;28;20439;-73
2022/07/14 09:18:24;;;;;;;7.25;3.55;;;;;;;20.93;53.15;101845.19;5244259;28;20473;-73
2022/07/14 09:20:57;;;;;;;9.45;3.67;;;;;;;20.94;53.32;101842.03;5244309;28;20021;-71
2022/07/14 09:23:31;;;;;;;6.40;3.30;;;;;;;21.09;53.32;101837.84;5260534;28;20396;-73
2022/07/14 09:26:15;;;;;;;6.47;3.40;;;;;;;21.07;52.97;101834.53;5256378;28;20056;-73
2022/07/14 09:28:49;;;;;;;8.30;3.80;;;;;;;21.21;52.81;101837.94;5253463;28;20029;-73
2022/07/14 09:31:27;;;;;;;10.95;3.67;;;;;;;21.17;51.66;101834.16;5264841;28;20095;-73
2022/07/14 09:34:01;;;;;;;11.35;6.15;;;;;;;21.15;51.56;101822.38;5245349;28;20025;-77
2022/07/14 09:36:35;;;;;;;7.90;4.85;;;;;;;21.26;50.34;101836.94;5244110;28;20112;-76
2022/07/14 09:39:08;;;;;;;9.27;2.80;;;;;;;21.51;49.57;101832.34;5249070;28;20086;-77
2022/07/14 09:41:53;;;;;;;7.30;2.38;;;;;;;21.77;50.86;101831.38;5263940;28;20021;-76
2022/07/14 09:44:24;;;;;;;7.35;2.55;;;;;;;21.88;48.58;101835.44;5259699;28;20021;-77
2022/07/14 09:46:57;;;;;;;8.98;3.42;;;;;;;21.61;46.67;101829.16;5242774;28;20750;-76
2022/07/14 09:49:30;;;;;;;10.35;5.70;;;;;;;21.42;48.38;101831.56;5260301;28;20029;-77
2022/07/14 09:52:02;;;;;;;6.53;3.47;;;;;;;21.48;48.99;101833.03;5264304;28;20029;-77
2022/07/14 09:54:37;;;;;;;8.55;2.70;;;;;;;21.57;46.72;101842.28;5260277;28;20040;-77
2022/07/14 09:57:20;;;;;;;6.43;2.75;;;;;;;21.57;44.18;101842.28;5258309;28;20041;-77
2022/07/14 10:00:16;;;;;;;5.32;2.20;;;;;;;21.65;45.05;101835.78;5243612;28;20047;-77
2022/07/14 10:02:47;;;;;;;;;;;;;;;21.82;44.80;101837.63;5255911;28;20021;-77
2022/07/14 10:05:18;;;;;;;5.60;2.88;;;;;;;21.67;46.06;101830.59;5252651;28;19912;-76
2022/07/14 10:07:50;;;;;;;8.45;2.20;;;;;;;21.70;46.56;101829.94;5263301;28;20373;-75
2022/07/14 10:10:21;;;;;;;5.82;2.13;;;;;;;21.98;47.45;101831.38;5262782;28;20025;-81
2022/07/14 10:12:55;;;;;;;7.15;2.47;;;;;;;22.07;47.07;101832.16;5262015;28;20021;-78
2022/07/14 10:15:26;;;;;;;6.32;2.85;;;;;;;22.18;47.10;101841.03;5262111;28;20036;-73
2022/07/14 10:18:02;;;;;;;8.93;3.25;;;;;;;22.14;44.77;101838.91;5263338;28;20025;-83
2022/07/14 10:20:34;;;;;;;6.60;2.30;;;;;;;21.93;44.98;101835.22;5251914;28;20018;-81
2022/07/14 10:23:06;;;;;;;7.15;2.35;;;;;;;21.97;45.70;101839.03;5261010;28;20020;-82
2022/07/14 10:25:38;;;;;;;4.55;2.22;;;;;;;21.92;45.74;101842.06;5262679;28;20460;-77
2022/07/14 10:28:10;;;;;;;5.32;2.15;;;;;;;22.11;44.72;101842.44;5249993;28;20029;-74
2022/07/14 10:30:48;;;;;;;7.95;2.40;;;;;;;22.06;44.02;101848.28;5251877;28;20029;-75
2022/07/14 10:33:35;;;;;;;6.10;2.50;;;;;;;22.04;43.70;101849.78;5256863;28;20037;-75
2022/07/14 10:36:15;;;;;;;5.40;2.05;;;;;;;22.12;44.27;101857.38;5254681;28;20025;-72
2022/07/14 10:39:11;;;;;;;5.25;1.90;;;;;;;22.24;45.64;101856.63;5256916;28;20037;-74
2022/07/14 10:41:51;;;;;;;6.70;2.00;;;;;;;22.18;44.18;101852.34;5245635;28;20025;-74
2022/07/14 10:44:25;;;;;;;5.40;1.85;;;;;;;22.14;44.38;101855.84;5258954;28;20053;-74
2022/07/14 10:47:41;;;;;;;3.90;1.77;;;;;;;22.29;44.55;101857.28;5246093;28;20041;-75
2022/07/14 10:50:13;;;;;;;6.35;1.85;;;;;;;22.09;43.20;101847.59;5233000;28;20371;-75
2022/07/14 10:53:00;;;;;;;6.75;2.53;;;;;;;22.30;44.04;101846.78;5253533;28;20025;-73
2022/07/14 10:55:37;;;;;;;3.17;1.77;;;;;;;22.34;44.67;101837.28;5242332;28;20108;-74
2022/07/14 10:58:08;;;;;;;9.55;4.50;;;;;;;22.44;43.50;101838.00;5244193;28;20588;-73
2022/07/14 11:00:43;;;;;;;4.38;2.08;;;;;;;22.66;42.78;101842.47;5259538;28;20131;-73
2022/07/14 11:03:19;;;;;;;4.93;1.80;;;;;;;22.60;42.32;101852.31;5258994;28;20045;-74
2022/07/14 11:06:03;;;;;;;21.98;19.70;;;;;;;22.36;42.69;101839.75;5262007;28;20029;-72
2022/07/14 11:08:42;;;;;;;22.42;20.13;;;;;;;22.47;43.10;101848.59;5263514;28;20064;-72
2022/07/14 11:11:18;;;;;;;17.52;14.23;;;;;;;22.44;42.72;101847.31;5261816;28;20029;-73
2022/07/14 11:14:07;;;;;;;5.53;3.10;;;;;;;22.37;43.12;101861.19;5254200;28;20101;-72
2022/07/14 11:16:45;;;;;;;5.95;3.90;;;;;;;22.48;43.27;101847.47;5262811;28;20021;-72
2022/07/14 11:19:24;;;;;;;13.80;9.75;;;;;;;22.66;43.77;101848.94;5260980;28;20108;-72
2022/07/14 11:22:08;;;;;;;14.32;10.60;;;;;;;22.73;43.79;101851.19;5261243;28;20044;-72
2022/07/14 11:24:49;;;;;;;5.03;2.55;;;;;;;22.82;44.34;101839.78;5257674;28;20550;-73
2022/07/14 11:27:29;;;;;;;3.83;1.90;;;;;;;22.66;43.59;101839.63;5246591;28;20060;-72
2022/07/14 11:30:19;;;;;;;3.38;2.10;;;;;;;22.81;44.64;101841.78;5262701;28;20025;-74
2022/07/14 11:32:57;;;;;;;6.00;2.10;;;;;;;22.96;43.94;101841.13;5261520;28;20586;-74
2022/07/14 11:38:39;;;;;;;6.72;2.80;;;;;;;23.12;43.63;101834.81;5242847;28;20509;-75
2022/07/14 11:41:14;;;;;;;6.70;2.13;;;;;;;23.33;42.65;101832.69;5248203;28;20068;-75
2022/07/14 11:43:50;;;;;;;9.15;3.42;;;;;;;23.19;42.15;101832.25;5243492;28;20026;-74
2022/07/14 11:46:21;;;;;;;10.15;8.88;;;;;;;23.35;42.77;101835.19;5250992;28;20028;-77
2022/07/14 11:48:55;;;;;;;6.88;3.03;;;;;;;23.20;43.26;101839.53;5266862;28;20029;-80
2022/07/14 11:51:29;;;;;;;6.40;2.90;;;;;;;23.38;42.81;101829.63;5264151;28;20025;-79
2022/07/14 11:54:04;;;;;;;6.47;2.20;;;;;;;23.26;41.14;101848.63;5244872;28;20037;-78
2022/07/14 11:56:35;;;;;;;6.55;1.90;;;;;;;23.30;41.38;101841.91;5261103;28;20029;-78
2022/07/14 11:59:09;;;;;;;3.47;2.20;;;;;;;23.22;40.90;101846.50;5263389;28;20021;-76
2022/07/14 12:01:44;;;;;;;4.03;2.08;;;;;;;23.42;41.01;101847.56;5262010;28;20064;-77
2022/07/14 12:04:20;;;;;;;6.88;1.90;;;;;;;23.44;40.76;101850.88;5262430;28;20048;-76
2022/07/14 12:06:52;;;;;;;6.10;2.33;;;;;;;23.15;41.15;101848.25;5266495;28;20048;-77
2022/07/14 12:09:33;;;;;;;4.90;2.65;;;;;;;23.30;40.48;101850.38;5265916;28;20085;-77
2022/07/14 12:12:06;;;;;;;5.00;2.50;;;;;;;23.28;40.67;101840.59;5269948;28;20443;-76
2022/07/14 12:14:52;;;;;;;5.20;2.10;;;;;;;23.44;41.24;101841.53;5258289;28;20027;-76
2022/07/14 12:17:23;;;;;;;6.88;2.17;;;;;;;23.42;40.33;101832.59;5255184;28;20025;-73
2022/07/14 12:19:55;;;;;;;6.93;1.92;;;;;;;23.57;40.27;101825.38;5262496;28;20083;-77
2022/07/14 12:22:26;;;;;;;3.83;2.10;;;;;;;23.78;40.77;101828.94;5261116;28;20120;-77
2022/07/14 12:24:58;;;;;;;5.07;2.15;;;;;;;23.90;40.10;101830.91;5262064;28;20117;-78
2022/07/14 12:27:29;;;;;;;4.82;2.30;;;;;;;23.96;41.06;101838.00;5250442;28;20021;-78
2022/07/14 12:30:00;;;;;;;4.53;2.00;;;;;;;23.73;39.82;101834.84;5252019;28;20115;-77
2022/07/14 12:32:31;;;;;;;4.63;1.90;;;;;;;23.75;40.22;101838.16;5258779;28;20426;-77
2022/07/14 12:35:03;;;;;;;3.40;1.73;;;;;;;23.84;41.41;101830.34;5261865;28;20028;-77
2022/07/14 12:37:35;;;;;;;8.93;3.38;;;;;;;23.71;40.60;101831.50;5261366;28;20032;-76
2022/07/14 12:40:07;;;;;;;7.07;2.45;;;;;;;23.68;40.58;101835.06;5262065;28;20025;-77
2022/07/14 12:42:38;;;;;;;5.07;2.50;;;;;;;23.61;41.12;101829.16;5241979;28;20038;-71
2022/07/14 12:45:09;;;;;;;4.82;2.55;;;;;;;23.71;41.75;101836.34;5265010;28;20029;-75
2022/07/14 12:47:51;;;;;;;4.75;2.05;;;;;;;23.65;40.30;101832.94;5266009;28;20024;-79
2022/07/14 12:50:26;;;;;;;5.30;2.42;;;;;;;23.96;40.53;101835.16;5252868;28;20025;-78
2022/07/14 12:52:58;;;;;;;61.17;55.95;;;;;;;23.97;40.54;101827.47;5258477;28;20040;-80
2022/07/14 12:55:39;;;;;;;5.32;2.95;;;;;;;23.77;40.01;101830.09;5260579;28;20085;-79
2022/07/14 12:58:12;;;;;;;6.38;2.55;;;;;;;23.74;39.70;101830.00;5266858;28;20446;-78
2022/07/14 13:00:46;;;;;;;6.28;1.98;;;;;;;23.67;40.26;101830.56;5262361;28;20063;-76
2022/07/14 13:03:19;;;;;;;7.53;2.35;;;;;;;23.85;40.81;101820.66;5263512;28;20557;-76
2022/07/14 13:05:56;;;;;;;4.90;2.10;;;;;;;23.64;40.08;101834.09;5260495;28;20540;-77
2022/07/14 13:08:32;;;;;;;5.47;1.75;;;;;;;23.69;40.47;101833.88;5266256;28;20111;-76
2022/07/14 13:11:11;;;;;;;10.30;2.90;;;;;;;23.68;40.90;101831.41;5252533;28;20033;-73
2022/07/14 13:13:45;;;;;;;4.40;2.00;;;;;;;23.70;41.17;101838.38;5252962;28;20096;-76
2022/07/14 13:16:21;;;;;;;3.55;1.80;;;;;;;23.62;41.18;101839.28;5266814;28;20033;-77
2022/07/14 13:19:03;;;;;;;5.15;1.75;;;;;;;23.54;41.76;101831.75;5264975;28;20041;-76
2022/07/14 13:21:51;;;;;;;27.05;24.35;;;;;;;23.64;41.86;101834.91;5266535;28;20032;-76
2022/07/14 13:24:27;;;;;;;5.88;3.75;;;;;;;23.63;42.18;101832.47;5265884;28;20093;-77
2022/07/14 13:27:00;;;;;;;5.18;1.92;;;;;;;23.63;41.91;101832.47;5264669;28;20461;-76
2022/07/14 13:29:33;;;;;;;5.60;2.45;;;;;;;23.75;42.57;101843.81;5252028;28;20025;-75
2022/07/14 13:32:09;;;;;;;5.32;2.30;;;;;;;23.80;41.69;101851.22;5262478;28;20104;-77
2022/07/14 13:34:41;;;;;;;14.02;11.40;;;;;;;23.88;41.17;101847.47;5260494;28;20044;-77
2022/07/14 13:37:15;;;;;;;5.65;3.03;;;;;;;23.98;40.96;101852.63;5251042;28;20071;-75
2022/07/14 13:39:46;;;;;;;9.10;5.32;;;;;;;23.95;41.34;101844.81;5264602;28;20028;-75
2022/07/14 13:42:18;;;;;;;5.38;1.77;;;;;;;24.25;41.40;101851.00;5266774;28;20029;-76
2022/07/14 13:44:49;;;;;;;5.03;2.00;;;;;;;24.48;41.10;101848.47;5267933;28;20025;-76
2022/07/14 13:47:20;;;;;;;6.22;1.70;;;;;;;24.58;41.18;101835.78;5268339;28;20088;-76
2022/07/14 13:52:42;;;;;;;4.88;2.00;;;;;;;24.93;39.18;101846.47;5263892;28;20048;-77
2022/07/14 13:55:13;;;;;;;6.20;1.75;;;;;;;25.00;38.76;101837.31;5263355;28;20029;-77
2022/07/14 13:57:44;;;;;;;3.88;1.95;;;;;;;25.08;38.79;101845.66;5264256;28;20059;-76
2022/07/14 14:00:16;;;;;;;3.25;1.77;;;;;;;24.94;37.83;101828.25;5264636;28;20017;-77
2022/07/14 14:05:37;;;;;;;3.35;1.98;;;;;;;25.54;38.18;101840.38;5264170;28;20072;-77
2022/07/14 14:08:10;;;;;;;10.57;5.40;;;;;;;25.55;37.58;101832.66;5261029;28;20061;-78
2022/07/14 14:10:41;;;;;;;3.53;2.10;;;;;;;25.79;38.30;101831.59;5257173;28;20418;-76
2022/07/14 14:13:12;;;;;;;5.93;1.92;;;;;;;25.78;36.76;101824.28;5262134;28;20037;-76
2022/07/14 14:15:44;;;;;;;5.80;1.90;;;;;;;25.72;36.79;101834.28;5249835;28;20025;-74
2022/07/14 14:18:17;;;;;;;4.03;1.95;;;;;;;25.13;37.04;101839.72;5257809;28;20036;-76
2022/07/14 14:20:48;;;;;;;27.63;25.08;;;;;;;25.14;37.26;101835.69;5265721;28;20032;-77
2022/07/14 14:23:19;;;;;;;9.13;2.47;;;;;;;25.04;37.58;101833.38;5257868;28;20033;-78
2022/07/14 14:25:50;;;;;;;4.82;2.72;;;;;;;25.16;37.77;101838.19;5265880;28;20333;-79
2022/07/14 14:28:24;;;;;;;3.95;1.95;;;;;;;25.09;38.07;101838.78;5265246;28;20025;-80
2022/07/14 14:30:55;;;;;;;7.18;2.83;;;;;;;25.02;38.68;101837.78;5284758;28;20035;-75
2022/07/14 14:33:27;;;;;;;4.22;2.70;;;;;;;25.00;38.00;101835.28;5250891;28;20021;-77
2022/07/14 14:35:59;;;;;;;10.25;8.95;;;;;;;24.93;37.99;101830.28;5243034;28;20048;-75
2022/07/14 14:38:30;;;;;;;6.63;2.20;;;;;;;24.70;38.15;101838.56;5243299;28;20120;-75
2022/07/14 14:41:01;;;;;;;6.47;2.97;;;;;;;24.56;39.32;101837.34;5251344;28;20017;-76
2022/07/14 14:43:33;;;;;;;6.38;2.13;;;;;;;24.39;39.54;101833.59;5260710;28;20025;-77
2022/07/14 14:46:04;;;;;;;11.00;2.90;;;;;;;24.56;39.31;101837.34;5257629;28;20030;-77
2022/07/14 14:48:36;;;;;;;7.72;2.88;;;;;;;24.59;39.81;101830.94;5243065;28;20047;-76
2022/07/14 14:51:08;;;;;;;5.22;2.33;;;;;;;24.86;39.26;101843.44;5256297;28;20091;-77
2022/07/14 14:53:39;;;;;;;3.17;2.28;;;;;;;25.12;38.80;101840.91;5264336;28;20112;-76
2022/07/14 14:56:10;;;;;;;4.13;2.45;;;;;;;25.24;38.89;101830.69;5263067;28;20032;-75
2022/07/14 14:58:42;;;;;;;10.63;3.17;;;;;;;25.24;38.75;101839.22;5262955;28;20049;-76
2022/07/14 15:01:13;;;;;;;11.43;9.93;;;;;;;25.20;38.90;101843.97;5262638;28;20029;-76
2022/07/14 15:03:47;;;;;;;6.22;2.30;;;;;;;24.88;38.95;101846.75;5261917;28;20029;-76
2022/07/14 15:06:19;;;;;;;3.53;1.95;;;;;;;24.91;39.49;101843.19;5262557;28;20419;-76
2022/07/14 15:08:51;;;;;;;4.85;2.30;;;;;;;24.64;40.22;101859.84;5258632;28;20079;-76
2022/07/14 15:11:22;;;;;;;17.17;3.30;;;;;;;24.41;40.36;101859.56;5248562;28;20016;-75
2022/07/14 15:13:54;;;;;;;4.90;2.15;;;;;;;24.46;40.32;101855.69;5262807;28;20021;-77
2022/07/14 15:16:25;;;;;;;4.03;2.00;;;;;;;24.70;40.50;101844.25;5258286;28;20045;-77
2022/07/14 15:18:56;;;;;;;5.28;2.13;;;;;;;24.48;41.26;101859.00;5251426;28;20032;-76
2022/07/14 15:21:28;;;;;;;12.05;7.78;;;;;;;24.41;41.30;101851.06;5261073;28;20044;-78
2022/07/14 15:23:59;;;;;;;5.60;2.20;;;;;;;24.33;41.71;101854.88;5251596;28;20369;-76
2022/07/14 15:26:31;;;;;;;6.55;2.55;;;;;;;24.51;42.04;101861.09;5261407;28;20067;-77
2022/07/14 15:29:02;;;;;;;3.42;1.90;;;;;;;24.78;42.12;101850.94;5245459;28;20068;-76
2022/07/14 15:31:35;;;;;;;5.38;2.15;;;;;;;24.77;41.17;101859.78;5241072;28;20026;-76
2022/07/14 15:34:06;;;;;;;4.10;1.80;;;;;;;24.93;40.96;101857.84;5247598;28;20435;-77
2022/07/14 15:36:37;;;;;;;24.45;21.98;;;;;;;24.66;41.24;101860.31;5251204;28;20029;-76
2022/07/14 15:42:01;;;;;;;4.32;2.10;;;;;;;24.47;41.36;101857.34;5256938;28;20033;-77
2022/07/14 15:44:32;;;;;;;3.50;2.10;;;;;;;24.51;41.19;101863.94;5262182;28;20468;-76
2022/07/14 15:47:03;;;;;;;2.25;1.83;;;;;;;24.59;41.12;101854.44;5261206;28;20105;-78
2022/07/14 15:49:35;;;;;;;3.50;1.80;;;;;;;24.60;41.11;101855.28;5262258;28;20523;-76
2022/07/14 15:52:07;;;;;;;4.68;2.00;;;;;;;24.42;40.79;101860.41;5261962;28;20031;-76
2022/07/14 15:54:38;;;;;;;4.90;2.20;;;;;;;24.51;40.67;101852.59;5260792;28;20043;-79
2022/07/14 15:57:09;;;;;;;4.00;2.13;;;;;;;24.54;40.54;101851.88;5250432;28;20057;-79
2022/07/14 15:59:40;;;;;;;4.53;1.98;;;;;;;24.28;40.72;101850.28;5261310;28;20028;-79
2022/07/14 16:02:12;;;;;;;6.07;2.33;;;;;;;24.27;41.15;101847.81;5262301;28;20021;-75
2022/07/14 16:04:43;;;;;;;7.05;1.73;;;;;;;24.12;40.52;101857.09;5260055;28;20037;-76
2022/07/14 16:07:14;;;;;;;4.03;1.77;;;;;;;24.32;40.21;101855.25;5258973;28;20591;-77
2022/07/14 16:09:45;;;;;;;2.47;1.90;;;;;;;24.18;39.77;101849.97;5261987;28;20087;-78
2022/07/14 16:12:18;;;;;;;5.10;2.17;;;;;;;24.22;39.18;101854.56;5261845;28;20025;-78
2022/07/14 16:14:49;;;;;;;2.88;1.80;;;;;;;24.39;38.99;101841.25;5245323;28;20033;-78
2022/07/14 16:17:20;;;;;;;6.43;1.77;;;;;;;24.58;38.83;101849.97;5241412;28;20055;-77
2022/07/14 16:19:52;;;;;;;6.18;1.77;;;;;;;24.40;38.71;101845.78;5247321;28;20380;-78
2022/07/14 16:22:26;;;;;;;4.80;1.75;;;;;;;24.54;38.87;101851.88;5263964;28;20031;-74
2022/07/14 16:24:57;;;;;;;4.22;1.85;;;;;;;24.39;39.34;101838.44;5250638;28;20026;-78
2022/07/14 16:27:29;;;;;;;3.45;1.55;;;;;;;24.11;39.09;101836.44;5253509;28;20079;-78
2022/07/14 16:30:00;;;;;;;3.38;1.63;;;;;;;24.33;39.30;101845.56;5265127;28;20477;-78
2022/07/14 16:32:31;;;;;;;4.50;1.55;;;;;;;24.14;39.47;101843.38;5265623;28;20021;-73
2022/07/14 16:35:04;;;;;;;5.40;1.55;;;;;;;24.22;38.54;101846.06;5251534;28;20020;-73
2022/07/14 16:37:35;;;;;;;4.15;1.50;;;;;;;24.17;38.86;101851.97;5250825;28;20103;-78
2022/07/14 16:40:08;;;;;;;3.38;1.65;;;;;;;24.10;38.52;101846.09;5251904;28;20029;-78
2022/07/14 16:42:39;;;;;;;5.88;1.60;;;;;;;24.35;38.18;101841.16;5249902;28;20029;-78
2022/07/14 16:45:11;;;;;;;3.75;1.40;;;;;;;24.33;38.70;101856.88;5254851;28;20109;-80
2022/07/14 16:47:42;;;;;;;4.25;1.45;;;;;;;24.41;37.97;101853.06;5254456;28;20086;-80
2022/07/14 16:50:15;;;;;;;4.05;1.58;;;;;;;24.73;37.51;101848.38;5256972;28;20133;-79
2022/07/14 16:52:46;;;;;;;5.68;1.77;;;;;;;24.68;36.78;101855.13;5264895;28;20040;-78
2022/07/14 16:55:18;;;;;;;3.78;1.27;;;;;;;24.58;37.08;101869.81;5262365;28;20033;-77
2022/07/14 16:57:49;;;;;;;2.75;1.20;;;;;;;24.49;36.54;101872.81;5264152;28;20095;-77
2022/07/14 17:00:21;;;;;;;3.90;1.10;;;;;;;24.47;36.70;101875.19;5263391;28;20542;-78
2022/07/14 17:02:54;;;;;;;3.35;1.30;;;;;;;24.62;36.50;101869.91;5261714;28;20079;-80
2022/07/14 17:08:15;;;;;;;5.78;1.90;;;;;;;24.88;36.02;101860.94;5264511;28;20484;-78
2022/07/14 17:10:46;;;;;;;3.67;1.50;;;;;;;24.69;35.70;101876.59;5243778;28;20026;-79
2022/07/14 17:13:18;;;;;;;4.50;2.30;;;;;;;24.48;35.91;101879.66;5246480;28;20087;-79
2022/07/14 17:15:49;;;;;;;4.10;1.50;;;;;;;24.64;35.98;101878.88;5263085;28;20028;-79
2022/07/14 17:18:20;;;;;;;4.82;1.20;;;;;;;24.57;36.13;101873.84;5252728;28;20141;-79
2022/07/14 17:20:52;;;;;;;2.67;1.10;;;;;;;24.47;35.33;101880.03;5248926;28;20033;-78
2022/07/14 17:23:23;;;;;;;2.85;1.17;;;;;;;24.52;34.87;101882.63;5263079;28;20051;-78
2022/07/14 17:25:55;;;;;;;2.90;0.95;;;;;;;24.54;34.88;101885.88;5251647;28;20030;-78
2022/07/14 17:28:27;;;;;;;4.50;0.98;;;;;;;24.22;34.16;101891.41;5249100;28;20025;-78
